createdAt,value
2023-11-22T00:00:12.067Z,9.50
2023-11-22T00:05:14.175Z,9.40
2023-11-22T00:10:16.018Z,9.30
2023-11-22T00:15:19.450Z,9.40
2023-11-22T00:20:22.133Z,9.30
2023-11-22T00:25:23.965Z,9.30
2023-11-22T00:30:25.682Z,9.30
2023-11-22T00:35:27.408Z,9.30
2023-11-22T00:40:29.165Z,9.30
2023-11-22T00:45:31.013Z,9.30
2023-11-22T00:50:32.915Z,9.30
2023-11-22T00:55:35.264Z,9.30
2023-11-22T01:00:37.014Z,9.30
2023-11-22T01:05:39.147Z,9.30
2023-11-22T01:10:41.646Z,9.30
2023-11-22T01:15:43.384Z,9.30
2023-11-22T01:20:46.250Z,9.30
2023-11-22T01:25:48.051Z,9.30
2023-11-22T01:30:50.196Z,9.30
2023-11-22T01:35:52.165Z,9.30
2023-11-22T01:40:53.975Z,9.30
2023-11-22T01:45:57.117Z,9.20
2023-11-22T01:50:59.086Z,9.30
2023-11-22T01:56:01.453Z,9.30
2023-11-22T02:01:05.550Z,9.20
2023-11-22T02:06:08.733Z,9.20
2023-11-22T02:11:10.627Z,9.20
2023-11-22T02:16:12.394Z,9.30
2023-11-22T02:21:15.672Z,9.20
2023-11-22T02:26:19.126Z,9.20
2023-11-22T02:31:21.081Z,9.20
2023-11-22T02:36:26.020Z,9.20
2023-11-22T02:41:30.866Z,9.30
2023-11-22T02:46:32.800Z,9.30
2023-11-22T02:51:34.535Z,9.10
2023-11-22T02:56:36.308Z,8.90
2023-11-22T03:01:38.021Z,8.80
2023-11-22T03:06:39.712Z,8.70
2023-11-22T03:11:42.134Z,8.70
2023-11-22T03:16:44.921Z,8.40
2023-11-22T03:21:46.889Z,8.30
2023-11-22T03:26:48.605Z,7.90
2023-11-22T03:31:50.309Z,8.00
2023-11-22T03:36:52.080Z,7.90
2023-11-22T03:41:53.944Z,7.90
2023-11-22T03:46:55.796Z,7.70
2023-11-22T03:51:57.478Z,7.80
2023-11-22T03:56:59.702Z,7.70
2023-11-22T04:02:01.526Z,7.60
2023-11-22T04:07:03.365Z,7.50
2023-11-22T04:12:05.557Z,7.40
2023-11-22T04:17:07.396Z,7.10
2023-11-22T04:22:09.671Z,7.10
2023-11-22T04:27:11.483Z,7.10
2023-11-22T04:32:13.362Z,6.80
2023-11-22T04:37:15.245Z,6.80
2023-11-22T04:42:16.943Z,6.80
2023-11-22T04:47:18.715Z,6.70
2023-11-22T04:52:20.474Z,6.70
2023-11-22T04:57:22.217Z,6.60
2023-11-22T05:02:24.234Z,6.60
2023-11-22T05:07:26.037Z,6.50
2023-11-22T05:12:27.749Z,6.40
2023-11-22T05:17:29.647Z,6.40
2023-11-22T05:22:31.411Z,6.40
2023-11-22T05:27:33.997Z,6.40
2023-11-22T05:32:35.852Z,6.30
2023-11-22T05:37:38.283Z,6.30
2023-11-22T05:42:41.198Z,6.30
2023-11-22T05:47:44.000Z,6.30
2023-11-22T05:52:45.872Z,6.40
2023-11-22T05:57:47.571Z,6.30
2023-11-22T06:02:49.369Z,6.40
2023-11-22T06:07:51.280Z,6.40
2023-11-22T06:12:53.027Z,6.30
2023-11-22T06:17:55.097Z,6.20
2023-11-22T06:22:56.871Z,6.20
2023-11-22T06:27:59.843Z,6.20
2023-11-22T06:33:03.178Z,6.10
2023-11-22T06:38:05.110Z,6.20
2023-11-22T06:43:06.903Z,6.20
2023-11-22T06:48:08.742Z,6.30
2023-11-22T06:53:10.688Z,6.10
2023-11-22T06:58:12.653Z,5.90
2023-11-22T07:03:15.854Z,5.80
2023-11-22T07:08:18.289Z,5.70
2023-11-22T07:13:20.177Z,5.80
2023-11-22T07:18:25.325Z,5.90
2023-11-22T07:23:30.184Z,5.90
2023-11-22T07:28:32.108Z,5.80
2023-11-22T07:33:34.211Z,5.90
2023-11-22T07:38:37.421Z,5.90
2023-11-22T07:43:40.108Z,5.80
2023-11-22T07:48:43.180Z,5.70
2023-11-22T07:53:45.139Z,5.70
2023-11-22T07:58:46.945Z,5.70
2023-11-22T08:03:49.337Z,5.70
2023-11-22T08:08:52.510Z,5.50
2023-11-22T08:13:56.152Z,5.40
2023-11-22T08:18:57.976Z,5.50
2023-11-22T08:24:00.678Z,5.30
2023-11-22T08:29:02.417Z,5.40
2023-11-22T08:34:07.720Z,5.50
2023-11-22T08:39:09.546Z,5.40
2023-11-22T08:44:11.358Z,5.40
2023-11-22T08:49:13.261Z,5.50
2023-11-22T08:54:15.605Z,5.60
2023-11-22T08:59:17.856Z,5.70
2023-11-22T09:04:19.791Z,5.60
2023-11-22T09:09:24.411Z,5.70
2023-11-22T09:14:26.864Z,5.70
2023-11-22T09:19:28.684Z,5.70
2023-11-22T09:24:32.336Z,5.80
2023-11-22T09:29:34.260Z,5.80
2023-11-22T09:39:38.258Z,5.80
2023-11-22T09:44:39.999Z,5.80
2023-11-22T09:49:42.640Z,5.80
2023-11-22T09:54:44.543Z,6.00
2023-11-22T09:59:48.455Z,5.90
2023-11-22T10:04:52.917Z,5.90
2023-11-22T10:09:55.258Z,5.90
2023-11-22T10:15:13.401Z,5.90
2023-11-22T10:20:15.548Z,5.80
2023-11-22T10:25:20.080Z,5.90
2023-11-22T10:30:21.841Z,6.00
2023-11-22T10:35:23.812Z,6.10
2023-11-22T10:40:25.653Z,6.00
2023-11-22T10:45:32.222Z,6.20
2023-11-22T10:50:34.031Z,6.20
2023-11-22T10:55:38.121Z,6.30
2023-11-22T11:00:45.286Z,6.30
2023-11-22T11:05:54.180Z,6.20
2023-11-22T11:10:59.694Z,6.20
2023-11-22T11:16:02.565Z,6.20
2023-11-22T11:21:13.011Z,6.10
2023-11-22T11:26:22.707Z,6.10
2023-11-22T11:31:25.251Z,6.10
2023-11-22T11:36:34.514Z,6.00
2023-11-22T11:41:40.685Z,6.10
2023-11-22T11:46:42.738Z,6.20
2023-11-22T11:51:44.642Z,6.10
2023-11-22T11:56:47.465Z,5.90
2023-11-22T12:01:54.557Z,5.80
2023-11-22T12:06:56.379Z,5.80
2023-11-22T12:12:02.576Z,5.70
2023-11-22T12:17:05.278Z,5.60
2023-11-22T12:22:09.230Z,5.50
2023-11-22T12:27:11.708Z,5.40
2023-11-22T12:32:13.769Z,5.50
2023-11-22T12:37:16.571Z,5.60
2023-11-22T12:42:18.331Z,5.60
2023-11-22T12:47:36.572Z,5.50
2023-11-22T12:52:38.776Z,5.40
2023-11-22T12:57:41.118Z,5.30
2023-11-22T13:02:52.391Z,5.40
2023-11-22T13:08:03.049Z,5.40
2023-11-22T13:13:04.900Z,5.40
2023-11-22T13:18:07.762Z,5.40
2023-11-22T13:23:10.410Z,5.00
2023-11-22T13:28:12.139Z,5.20
2023-11-22T13:33:14.212Z,5.30
2023-11-22T13:38:17.549Z,5.40
2023-11-22T13:43:20.712Z,5.30
2023-11-22T13:48:24.736Z,5.30
2023-11-22T13:53:28.162Z,5.40
2023-11-22T13:58:30.336Z,5.40
2023-11-22T14:03:32.184Z,5.40
2023-11-22T14:08:33.966Z,5.30
2023-11-22T14:13:35.903Z,5.30
2023-11-22T14:18:37.794Z,5.40
2023-11-22T14:23:39.885Z,5.30
2023-11-22T14:28:42.906Z,5.40
2023-11-22T14:33:44.707Z,5.30
2023-11-22T14:38:48.764Z,5.30
2023-11-22T14:43:51.277Z,5.20
2023-11-22T14:48:54.321Z,5.20
2023-11-22T14:53:56.513Z,5.10
2023-11-22T14:58:58.231Z,5.10
2023-11-22T15:04:00.053Z,5.20
2023-11-22T15:09:01.799Z,5.20
2023-11-22T15:14:03.479Z,5.20
2023-11-22T15:19:07.754Z,5.20
2023-11-22T15:24:09.527Z,5.20
2023-11-22T15:29:11.401Z,5.30
2023-11-22T15:34:13.292Z,5.20
2023-11-22T15:39:16.853Z,5.20
2023-11-22T15:44:18.678Z,5.20
2023-11-22T15:49:20.802Z,5.20
2023-11-22T15:54:22.877Z,5.30
2023-11-22T15:59:24.953Z,5.20
2023-11-22T16:04:26.673Z,5.20
2023-11-22T16:09:28.523Z,5.10
2023-11-22T16:14:30.609Z,5.10
2023-11-22T16:19:32.477Z,5.10
2023-11-22T16:24:35.964Z,5.20
2023-11-22T16:29:38.163Z,5.20
2023-11-22T16:34:39.951Z,5.10
2023-11-22T16:39:41.780Z,5.10
2023-11-22T16:44:44.235Z,5.20
2023-11-22T16:49:47.295Z,5.10
2023-11-22T16:54:48.979Z,5.20
2023-11-22T16:59:50.737Z,5.10
2023-11-22T17:04:56.191Z,5.00
2023-11-22T17:09:58.442Z,5.10
2023-11-22T17:15:00.422Z,5.10
2023-11-22T17:20:05.392Z,5.10
2023-11-22T17:25:16.774Z,5.10
2023-11-22T17:30:18.555Z,5.00
2023-11-22T17:35:21.584Z,5.00
2023-11-22T17:40:24.504Z,4.90
2023-11-22T17:45:26.456Z,5.00
2023-11-22T17:50:28.301Z,5.00
2023-11-22T17:55:30.051Z,5.00
2023-11-22T18:00:33.082Z,5.10
2023-11-22T18:05:35.071Z,5.10
2023-11-22T18:10:42.026Z,5.00
2023-11-22T18:15:48.696Z,5.00
2023-11-22T18:20:50.498Z,5.00
2023-11-22T18:25:55.807Z,5.00
2023-11-22T18:30:57.612Z,4.90
2023-11-22T18:35:59.562Z,5.00
2023-11-22T18:41:04.517Z,5.00
2023-11-22T18:46:07.580Z,5.10
2023-11-22T18:51:09.760Z,5.10
2023-11-22T18:56:13.340Z,5.00
2023-11-22T19:01:15.084Z,5.00
2023-11-22T19:06:16.909Z,5.20
2023-11-22T19:11:18.701Z,5.20
2023-11-22T19:16:21.929Z,5.20
2023-11-22T19:21:24.364Z,5.00
2023-11-22T19:26:26.707Z,4.90
2023-11-22T19:31:28.411Z,4.80
2023-11-22T19:36:30.778Z,4.70
2023-11-22T19:41:32.660Z,4.70
2023-11-22T19:46:34.755Z,4.60
2023-11-22T19:51:40.416Z,4.70
2023-11-22T19:56:42.716Z,4.80
2023-11-22T20:01:44.684Z,5.10
2023-11-22T20:06:49.417Z,5.00
2023-11-22T20:11:51.279Z,5.10
2023-11-22T20:16:53.036Z,5.10
2023-11-22T20:21:54.829Z,5.00
2023-11-22T20:26:58.128Z,4.90
2023-11-22T20:32:00.906Z,5.00
2023-11-22T20:37:07.361Z,5.00
2023-11-22T20:42:09.144Z,4.90
2023-11-22T20:47:13.305Z,4.90
2023-11-22T20:52:18.985Z,4.90
2023-11-22T20:57:23.147Z,4.70
2023-11-22T21:02:25.074Z,4.70
2023-11-22T21:07:26.821Z,4.70
2023-11-22T21:12:28.675Z,4.80
2023-11-22T21:17:40.819Z,5.10
2023-11-22T21:22:44.206Z,5.00
2023-11-22T21:27:46.799Z,4.90
2023-11-22T21:32:48.664Z,5.00
2023-11-22T21:37:51.115Z,4.90
2023-11-22T21:42:52.882Z,4.90
2023-11-22T21:47:54.732Z,5.00
2023-11-22T21:52:56.484Z,4.90
2023-11-22T21:57:58.215Z,4.80
2023-11-22T22:03:00.688Z,4.70
2023-11-22T22:08:05.502Z,4.70
2023-11-22T22:13:07.441Z,4.70
2023-11-22T22:18:09.334Z,4.70
2023-11-22T22:23:11.777Z,4.60
2023-11-22T22:28:13.563Z,4.80
2023-11-22T22:33:15.327Z,4.80
2023-11-22T22:38:18.985Z,4.80
2023-11-22T22:43:20.688Z,4.70
2023-11-22T22:48:23.344Z,4.90
2023-11-22T22:53:25.609Z,4.90
2023-11-22T22:58:27.371Z,5.00
2023-11-22T23:03:30.475Z,5.00
2023-11-22T23:08:33.139Z,5.00
2023-11-22T23:13:34.987Z,4.90
2023-11-22T23:18:36.760Z,4.90
2023-11-22T23:23:38.665Z,4.80
2023-11-22T23:28:40.481Z,4.80
2023-11-22T23:33:43.699Z,4.80
2023-11-22T23:38:46.634Z,4.90
2023-11-22T23:43:48.328Z,4.80
2023-11-22T23:48:51.362Z,4.80
2023-11-22T23:53:53.156Z,4.80
2023-11-22T23:58:54.876Z,4.70
